Terminal Aerodrome Forecast
Issued by NWS Sioux Falls, SD

Home | Current Version | Previous Version | Text Only | Print | Product List | Glossary On
Versions: 1 2 3 4 5 6 7 8 9 10 11 12 13
115
FTUS43 KFSD 050521
TAFHON
TAF
KHON 050521Z 0506/0606 17011KT P6SM OVC110
     FM051500 20005KT P6SM OVC080
     FM051700 26009KT P6SM BKN045
     FM051900 29012G23KT P6SM BKN018
     FM060100 30016G28KT P6SM BKN025=

USA.gov is the U.S. government's official web portal to all federal, state and local government web resources and services.